createdAt,value
2023-04-15T00:01:01.294Z,265.40
2023-04-15T00:03:28.722Z,266.00
2023-04-15T00:05:55.540Z,266.40
2023-04-15T00:08:22.172Z,266.45
2023-04-15T00:10:49.437Z,269.05
2023-04-15T00:13:16.617Z,267.67
2023-04-15T00:15:43.421Z,267.77
2023-04-15T00:18:10.050Z,271.30
2023-04-15T00:20:37.262Z,271.23
2023-04-15T00:23:04.237Z,269.08
2023-04-15T00:25:31.135Z,272.73
2023-04-15T00:27:57.785Z,274.92
2023-04-15T00:30:24.361Z,278.35
2023-04-15T00:32:51.056Z,278.83
2023-04-15T00:35:18.253Z,278.52
2023-04-15T00:37:46.174Z,279.00
2023-04-15T00:40:13.990Z,276.02
2023-04-15T00:42:40.987Z,274.95
2023-04-15T00:45:08.938Z,277.52
2023-04-15T00:47:37.671Z,272.92
2023-04-15T00:50:05.054Z,274.30
2023-04-15T00:52:32.097Z,272.90
2023-04-15T00:54:59.526Z,251.13
2023-04-15T00:57:27.127Z,253.23
2023-04-15T00:59:53.891Z,259.98
2023-04-15T01:02:21.288Z,260.65
2023-04-15T01:04:48.081Z,261.00
2023-04-15T01:07:14.716Z,265.30
2023-04-15T01:09:42.269Z,265.42
2023-04-15T01:12:12.077Z,269.73
2023-04-15T01:14:38.826Z,265.92
2023-04-15T01:17:05.400Z,266.95
2023-04-15T01:19:32.183Z,267.90
2023-04-15T01:21:59.112Z,266.65
2023-04-15T01:24:28.059Z,262.50
2023-04-15T01:26:54.622Z,261.15
2023-04-15T01:29:21.451Z,261.48
2023-04-15T01:31:52.713Z,258.65
2023-04-15T01:34:19.664Z,258.85
2023-04-15T01:36:46.871Z,255.60
2023-04-15T01:39:13.694Z,257.30
2023-04-15T01:41:42.296Z,255.75
2023-04-15T01:44:09.187Z,257.88
2023-04-15T01:46:36.462Z,261.30
2023-04-15T01:49:03.332Z,264.70
2023-04-15T01:51:29.931Z,263.50
2023-04-15T01:53:57.707Z,262.30
2023-04-15T01:56:24.578Z,264.38
2023-04-15T01:58:51.796Z,268.20
2023-04-15T02:01:20.075Z,268.40
2023-04-15T02:03:48.044Z,271.23
2023-04-15T02:06:14.947Z,270.27
2023-04-15T02:08:41.531Z,269.80
2023-04-15T02:11:08.487Z,267.40
2023-04-15T02:13:35.153Z,272.67
2023-04-15T02:16:01.877Z,272.63
2023-04-15T02:18:28.616Z,273.20
2023-04-15T02:20:57.336Z,272.52
2023-04-15T02:23:24.592Z,272.48
2023-04-15T02:25:53.346Z,252.15
2023-04-15T02:28:20.514Z,254.07
2023-04-15T02:30:52.782Z,252.75
2023-04-15T02:33:20.209Z,176.35
2023-04-15T02:35:47.338Z,160.65
2023-04-15T02:38:14.825Z,158.35
2023-04-15T02:40:41.607Z,149.68
2023-04-15T02:43:08.177Z,160.55
2023-04-15T02:45:34.840Z,157.57
2023-04-15T02:48:06.235Z,167.15
2023-04-15T02:50:33.167Z,145.80
2023-04-15T02:53:01.540Z,156.77
2023-04-15T02:55:29.152Z,141.00
2023-04-15T02:57:55.984Z,137.48
2023-04-15T03:00:25.218Z,150.50
2023-04-15T03:02:56.587Z,144.07
2023-04-15T03:05:26.535Z,146.23
2023-04-15T03:07:53.883Z,145.57
2023-04-15T03:10:21.582Z,152.63
2023-04-15T03:12:48.570Z,157.80
2023-04-15T03:15:15.635Z,135.57
2023-04-15T03:17:42.274Z,132.32
2023-04-15T03:20:09.624Z,141.65
2023-04-15T03:22:36.298Z,167.43
2023-04-15T03:25:02.890Z,151.05
2023-04-15T03:27:29.396Z,146.60
2023-04-15T03:29:56.851Z,147.30
2023-04-15T03:32:23.502Z,145.52
2023-04-15T03:34:50.296Z,165.60
2023-04-15T03:37:16.852Z,173.60
2023-04-15T03:39:43.394Z,173.48
2023-04-15T03:42:09.961Z,162.45
2023-04-15T03:44:37.196Z,161.73
2023-04-15T03:47:03.762Z,163.25
2023-04-15T03:49:30.514Z,175.13
2023-04-15T03:51:57.423Z,163.32
2023-04-15T03:54:23.940Z,153.50
2023-04-15T03:56:50.500Z,233.93
2023-04-15T03:59:17.051Z,332.33
2023-04-15T04:01:43.685Z,319.48
2023-04-15T04:04:10.881Z,319.05
2023-04-15T04:06:37.696Z,328.13
2023-04-15T04:09:04.241Z,339.10
2023-04-15T04:11:31.778Z,341.23
2023-04-15T04:13:58.337Z,342.92
2023-04-15T04:16:25.039Z,344.48
2023-04-15T04:18:51.632Z,347.10
2023-04-15T04:21:18.288Z,353.88
2023-04-15T04:23:44.901Z,347.25
2023-04-15T04:26:11.483Z,352.45
2023-04-15T04:28:40.638Z,357.52
2023-04-15T04:31:07.861Z,358.90
2023-04-15T04:33:34.564Z,356.50
2023-04-15T04:36:01.471Z,359.08
2023-04-15T04:38:28.103Z,360.20
2023-04-15T04:40:54.695Z,362.30
2023-04-15T04:43:21.717Z,363.42
2023-04-15T04:45:48.291Z,364.35
2023-04-15T04:48:14.868Z,362.80
2023-04-15T04:50:41.971Z,364.20
2023-04-15T04:53:08.641Z,365.02
2023-04-15T04:55:36.984Z,366.83
2023-04-15T04:58:03.482Z,365.75
2023-04-15T05:00:30.393Z,370.42
2023-04-15T05:02:57.144Z,367.77
2023-04-15T05:05:23.798Z,364.77
2023-04-15T05:07:50.735Z,367.08
2023-04-15T05:10:18.310Z,368.23
2023-04-15T05:12:45.031Z,365.58
2023-04-15T05:15:12.181Z,371.65
2023-04-15T05:17:38.848Z,371.63
2023-04-15T05:20:05.978Z,370.30
2023-04-15T05:22:32.702Z,370.63
2023-04-15T05:24:59.385Z,372.13
2023-04-15T05:27:26.023Z,371.90
2023-04-15T05:29:52.636Z,375.60
2023-04-15T05:32:19.261Z,380.85
2023-04-15T05:34:45.872Z,381.98
2023-04-15T05:37:12.813Z,384.67
2023-04-15T05:39:39.325Z,387.15
2023-04-15T05:42:06.215Z,383.60
2023-04-15T05:44:32.992Z,381.70
2023-04-15T05:46:59.612Z,382.48
2023-04-15T05:49:26.185Z,385.08
2023-04-15T05:51:52.859Z,385.33
2023-04-15T05:54:20.308Z,383.45
2023-04-15T05:56:46.983Z,383.55
2023-04-15T05:59:13.563Z,381.38
2023-04-15T06:01:40.296Z,381.88
2023-04-15T06:04:07.118Z,376.23
2023-04-15T06:06:33.732Z,376.83
2023-04-15T06:09:00.646Z,372.05
2023-04-15T06:11:27.424Z,375.27
2023-04-15T06:13:54.070Z,372.88
2023-04-15T06:16:20.660Z,372.75
2023-04-15T06:18:47.211Z,363.10
2023-04-15T06:21:13.920Z,360.65
2023-04-15T06:23:41.399Z,365.85
2023-04-15T06:26:08.501Z,367.73
2023-04-15T06:28:35.337Z,365.63
2023-04-15T06:31:02.027Z,368.13
2023-04-15T06:33:28.826Z,370.92
2023-04-15T06:35:55.409Z,378.20
2023-04-15T06:38:22.028Z,377.20
2023-04-15T06:40:48.581Z,371.92
2023-04-15T06:43:15.440Z,375.90
2023-04-15T06:45:41.963Z,371.83
2023-04-15T06:48:08.505Z,369.88
2023-04-15T06:50:35.796Z,372.58
2023-04-15T06:53:03.088Z,372.00
2023-04-15T06:55:29.832Z,368.88
2023-04-15T06:57:56.541Z,371.55
2023-04-15T07:00:23.350Z,367.05
2023-04-15T07:02:49.987Z,365.83
2023-04-15T07:05:16.740Z,368.55
2023-04-15T07:07:43.376Z,369.83
2023-04-15T07:10:11.965Z,371.45
2023-04-15T07:12:38.576Z,369.13
2023-04-15T07:15:05.754Z,370.98
2023-04-15T07:17:32.404Z,366.40
2023-04-15T07:19:59.013Z,371.20
2023-04-15T07:22:27.441Z,364.17
2023-04-15T07:24:54.011Z,365.73
2023-04-15T07:27:21.023Z,363.85
2023-04-15T07:29:48.319Z,369.15
2023-04-15T07:32:14.831Z,371.05
2023-04-15T07:34:42.242Z,372.45
2023-04-15T07:37:09.404Z,368.67
2023-04-15T07:39:36.000Z,376.33
2023-04-15T07:42:03.925Z,372.27
2023-04-15T07:44:30.517Z,371.92
2023-04-15T07:46:57.311Z,379.00
2023-04-15T07:49:23.872Z,373.30
2023-04-15T07:51:51.112Z,374.60
2023-04-15T07:54:17.656Z,379.23
2023-04-15T07:56:44.222Z,379.92
2023-04-15T07:59:11.656Z,376.65
2023-04-15T08:01:38.991Z,383.23
2023-04-15T08:04:05.758Z,385.85
2023-04-15T08:06:33.253Z,385.67
2023-04-15T08:09:00.204Z,386.65
2023-04-15T08:11:27.852Z,392.02
2023-04-15T08:13:54.475Z,392.23
2023-04-15T08:16:27.615Z,387.77
2023-04-15T08:18:57.790Z,386.25
2023-04-15T08:21:25.041Z,390.08
2023-04-15T08:23:53.401Z,394.73
2023-04-15T08:26:21.326Z,393.70
2023-04-15T08:28:49.288Z,392.65
2023-04-15T08:31:17.506Z,393.25
2023-04-15T08:33:44.512Z,389.67
2023-04-15T08:36:11.055Z,360.88
2023-04-15T08:38:38.079Z,362.75
2023-04-15T08:41:12.342Z,363.35
2023-04-15T08:43:50.665Z,371.55
2023-04-15T08:46:17.796Z,381.95
2023-04-15T08:48:45.672Z,378.83
2023-04-15T08:51:16.053Z,380.80
2023-04-15T08:53:47.507Z,384.27
2023-04-15T08:56:16.894Z,383.70
2023-04-15T08:58:47.138Z,383.63
2023-04-15T09:01:13.910Z,387.42
2023-04-15T09:03:42.095Z,375.20
2023-04-15T09:06:09.058Z,375.35
2023-04-15T09:08:35.940Z,377.02
2023-04-15T09:11:05.784Z,381.35
2023-04-15T09:13:32.277Z,383.25
2023-04-15T09:15:58.828Z,377.85
2023-04-15T09:18:31.136Z,388.00
2023-04-15T09:21:08.954Z,381.52
2023-04-15T09:23:36.311Z,384.45
2023-04-15T09:26:03.779Z,378.23
2023-04-15T09:28:31.057Z,384.30
2023-04-15T09:31:01.798Z,379.15
2023-04-15T09:33:30.241Z,389.08
2023-04-15T09:36:05.628Z,380.13
2023-04-15T09:38:32.576Z,375.85
2023-04-15T09:40:59.691Z,370.52
2023-04-15T09:43:40.817Z,364.08
2023-04-15T09:46:07.533Z,374.10
2023-04-15T09:48:34.073Z,372.85
2023-04-15T09:51:02.171Z,374.02
2023-04-15T09:53:30.570Z,371.92
2023-04-15T09:56:03.380Z,375.25
2023-04-15T09:58:34.868Z,373.63
2023-04-15T10:01:04.620Z,374.90
2023-04-15T10:03:36.887Z,372.67
2023-04-15T10:06:05.613Z,371.08
2023-04-15T10:08:34.969Z,374.08
2023-04-15T10:11:05.492Z,378.38
2023-04-15T10:13:37.405Z,374.38
2023-04-15T10:16:11.945Z,381.05
2023-04-15T10:18:42.890Z,382.10
2023-04-15T10:21:09.510Z,388.92
2023-04-15T10:23:36.802Z,387.25
2023-04-15T10:26:04.854Z,385.50
2023-04-15T10:28:31.496Z,396.92
2023-04-15T10:30:59.862Z,402.25
2023-04-15T10:33:27.806Z,391.33
2023-04-15T10:35:56.155Z,391.15
2023-04-15T10:38:43.391Z,391.33
2023-04-15T10:41:17.776Z,392.95
2023-04-15T10:43:57.905Z,392.55
2023-04-15T10:46:35.280Z,389.67
2023-04-15T10:49:13.442Z,393.27
2023-04-15T10:51:42.717Z,384.73
2023-04-15T10:54:14.913Z,385.75
2023-04-15T10:56:45.381Z,391.45
2023-04-15T10:59:11.992Z,386.58
2023-04-15T11:01:53.256Z,391.85
2023-04-15T11:04:51.575Z,387.67
2023-04-15T11:07:40.002Z,389.23
2023-04-15T11:10:32.450Z,381.38
2023-04-15T11:13:02.280Z,384.02
2023-04-15T11:15:33.189Z,378.85
2023-04-15T11:18:10.124Z,372.35
2023-04-15T11:20:38.191Z,368.65
2023-04-15T11:23:13.907Z,364.85
2023-04-15T11:25:43.215Z,372.35
2023-04-15T11:28:11.439Z,376.98
2023-04-15T11:30:39.655Z,382.00
2023-04-15T11:33:09.260Z,380.10
2023-04-15T11:35:36.685Z,383.27
2023-04-15T11:38:05.340Z,385.33
2023-04-15T11:40:33.530Z,387.30
2023-04-15T11:43:15.846Z,387.27
2023-04-15T11:45:58.105Z,379.85
2023-04-15T11:48:35.810Z,382.35
2023-04-15T11:51:04.305Z,383.67
2023-04-15T11:53:44.129Z,385.50
2023-04-15T11:56:17.187Z,389.27
2023-04-15T11:58:44.791Z,385.70
2023-04-15T12:01:11.883Z,381.13
2023-04-15T12:03:41.421Z,383.73
2023-04-15T12:06:21.306Z,389.50
2023-04-15T12:08:49.420Z,383.88
2023-04-15T12:11:17.053Z,387.17
2023-04-15T12:13:51.356Z,386.52
2023-04-15T12:16:21.805Z,390.05
2023-04-15T12:18:52.323Z,380.02
2023-04-15T12:21:34.575Z,396.77
2023-04-15T12:24:04.821Z,450.08
2023-04-15T12:26:37.540Z,523.13
2023-04-15T12:29:08.552Z,584.47
2023-04-15T12:31:47.346Z,665.05
2023-04-15T12:34:14.635Z,713.25
2023-04-15T12:36:41.224Z,786.10
2023-04-15T12:39:07.772Z,767.00
2023-04-15T12:41:34.358Z,782.17
2023-04-15T12:44:01.505Z,733.08
2023-04-15T12:46:28.513Z,757.47
2023-04-15T12:48:55.151Z,749.60
2023-04-15T12:51:21.832Z,764.83
2023-04-15T12:53:49.674Z,781.88
2023-04-15T12:56:17.044Z,798.10
2023-04-15T12:58:43.626Z,817.22
2023-04-15T13:01:11.217Z,843.22
2023-04-15T13:03:37.992Z,905.42
2023-04-15T13:06:05.172Z,894.95
2023-04-15T13:08:32.138Z,923.55
2023-04-15T13:10:58.814Z,936.85
2023-04-15T13:13:25.665Z,958.63
2023-04-15T13:15:52.221Z,986.78
2023-04-15T13:18:19.061Z,999.90
2023-04-15T13:20:45.581Z,999.90
2023-04-15T13:23:12.362Z,999.90
2023-04-15T13:25:38.899Z,999.90
2023-04-15T13:28:05.510Z,999.90
2023-04-15T13:30:32.332Z,999.90
2023-04-15T13:32:59.142Z,999.90
2023-04-15T13:35:25.864Z,999.90
2023-04-15T13:37:54.020Z,999.90
2023-04-15T13:40:20.577Z,999.90
2023-04-15T13:42:47.195Z,999.90
2023-04-15T13:45:13.912Z,999.90
2023-04-15T13:47:40.659Z,999.90
2023-04-15T13:50:07.749Z,999.90
2023-04-15T13:52:34.311Z,999.90
2023-04-15T13:55:07.460Z,999.90
2023-04-15T13:57:47.387Z,999.90
2023-04-15T14:00:14.581Z,999.90
2023-04-15T14:02:42.314Z,999.90
2023-04-15T14:05:09.483Z,999.90
2023-04-15T14:07:36.595Z,999.90
2023-04-15T14:10:04.036Z,999.90
2023-04-15T14:12:30.780Z,999.90
2023-04-15T14:14:57.358Z,999.90
2023-04-15T14:17:24.004Z,999.90
2023-04-15T14:19:50.678Z,999.90
2023-04-15T14:22:18.910Z,999.90
2023-04-15T14:24:45.725Z,999.90
2023-04-15T14:27:12.588Z,999.90
2023-04-15T14:29:39.176Z,999.90
2023-04-15T14:32:12.157Z,999.90
2023-04-15T14:37:06.432Z,999.90
2023-04-15T14:39:33.015Z,999.90
2023-04-15T14:41:59.582Z,999.90
2023-04-15T14:44:26.079Z,999.90
2023-04-15T14:46:52.792Z,999.90
2023-04-15T14:49:19.783Z,999.90
2023-04-15T14:51:46.496Z,999.90
2023-04-15T14:54:13.089Z,999.90
2023-04-15T14:56:39.702Z,999.90
2023-04-15T14:59:06.319Z,999.90
2023-04-15T15:01:33.826Z,999.90
2023-04-15T15:04:00.745Z,999.72
2023-04-15T15:06:27.842Z,999.90
2023-04-15T15:08:54.420Z,999.90
2023-04-15T15:11:21.157Z,999.90
2023-04-15T15:13:47.719Z,999.90
2023-04-15T15:16:14.822Z,999.90
2023-04-15T15:18:41.556Z,999.90
2023-04-15T15:21:08.075Z,999.90
2023-04-15T15:23:34.622Z,999.90
2023-04-15T15:26:01.280Z,999.90
2023-04-15T15:28:27.850Z,999.90
2023-04-15T15:30:54.735Z,999.90
2023-04-15T15:33:21.641Z,999.90
2023-04-15T15:35:48.226Z,999.90
2023-04-15T15:38:14.930Z,999.90
2023-04-15T15:40:41.577Z,999.90
2023-04-15T15:43:08.192Z,999.90
2023-04-15T15:45:35.896Z,999.90
2023-04-15T15:48:02.781Z,999.90
2023-04-15T15:50:29.410Z,999.90
2023-04-15T15:52:56.128Z,999.90
2023-04-15T15:55:23.412Z,999.90
2023-04-15T15:57:50.069Z,999.90
2023-04-15T16:00:17.167Z,999.90
2023-04-15T16:05:13.571Z,999.90
2023-04-15T16:07:40.108Z,999.90
2023-04-15T16:10:07.304Z,999.90
2023-04-15T16:12:35.025Z,999.90
2023-04-15T16:15:01.855Z,999.90
2023-04-15T16:17:28.436Z,999.90
2023-04-15T16:19:57.932Z,999.90
2023-04-15T16:22:27.409Z,999.90
2023-04-15T16:24:54.095Z,994.38
2023-04-15T16:27:20.906Z,998.63
2023-04-15T16:29:47.476Z,999.35
2023-04-15T16:32:14.139Z,999.80
2023-04-15T16:34:41.342Z,996.83
2023-04-15T16:37:08.107Z,992.20
2023-04-15T16:39:34.764Z,995.20
2023-04-15T16:42:02.564Z,986.95
2023-04-15T16:44:29.304Z,999.80
2023-04-15T16:46:56.398Z,991.40
2023-04-15T16:49:22.937Z,979.70
2023-04-15T16:51:49.528Z,987.60
2023-04-15T16:54:16.240Z,999.90
2023-04-15T16:56:42.781Z,999.90
2023-04-15T16:59:09.300Z,999.90
2023-04-15T17:01:36.232Z,999.90
2023-04-15T17:04:02.980Z,999.90
2023-04-15T17:06:30.726Z,999.90
2023-04-15T17:08:57.263Z,999.90
2023-04-15T17:11:23.807Z,999.90
2023-04-15T17:13:50.967Z,999.90
2023-04-15T17:16:17.562Z,999.90
2023-04-15T17:18:44.612Z,999.90
2023-04-15T17:21:11.253Z,999.90
2023-04-15T17:23:37.823Z,999.90
2023-04-15T17:26:04.376Z,999.90
2023-04-15T17:28:30.947Z,999.90
2023-04-15T17:30:57.610Z,999.22
2023-04-15T17:33:55.427Z,995.35
2023-04-15T17:36:11.164Z,991.95
2023-04-15T17:38:37.717Z,989.88
2023-04-15T17:41:04.818Z,999.53
2023-04-15T17:43:31.978Z,999.90
2023-04-15T17:45:58.828Z,999.90
2023-04-15T17:48:26.128Z,999.90
2023-04-15T17:50:52.680Z,999.70
2023-04-15T17:53:19.263Z,999.90
2023-04-15T17:55:46.469Z,981.20
2023-04-15T17:58:13.039Z,975.03
2023-04-15T18:00:39.580Z,955.05
2023-04-15T18:03:06.270Z,943.33
2023-04-15T18:05:32.948Z,938.08
2023-04-15T18:07:59.542Z,935.42
2023-04-15T18:10:26.104Z,941.95
2023-04-15T18:12:52.672Z,944.53
2023-04-15T18:15:19.198Z,955.00
2023-04-15T18:17:46.298Z,904.40
2023-04-15T18:20:13.030Z,903.35
2023-04-15T18:22:39.612Z,723.03
2023-04-15T18:25:06.934Z,932.97
2023-04-15T18:27:34.539Z,916.67
2023-04-15T18:30:01.189Z,893.03
2023-04-15T18:32:31.684Z,904.45
2023-04-15T18:34:58.465Z,889.22
2023-04-15T18:37:26.184Z,894.90
2023-04-15T18:39:54.112Z,808.47
2023-04-15T18:42:21.162Z,880.22
2023-04-15T18:44:48.208Z,959.67
2023-04-15T18:47:15.355Z,999.38
2023-04-15T18:49:42.046Z,999.90
2023-04-15T18:52:12.160Z,998.58
2023-04-15T18:54:38.675Z,999.45
2023-04-15T18:57:06.458Z,997.67
2023-04-15T18:59:33.661Z,994.28
2023-04-15T19:02:00.463Z,997.70
2023-04-15T19:04:29.329Z,998.47
2023-04-15T19:06:56.316Z,999.70
2023-04-15T19:09:22.947Z,991.55
2023-04-15T19:11:49.477Z,997.30
2023-04-15T19:14:17.315Z,999.25
2023-04-15T19:16:43.830Z,996.05
2023-04-15T19:19:10.434Z,998.50
2023-04-15T19:21:37.013Z,997.53
2023-04-15T19:24:03.656Z,996.08
2023-04-15T19:26:30.508Z,996.90
2023-04-15T19:28:58.896Z,999.53
2023-04-15T19:31:26.257Z,997.65
2023-04-15T19:33:53.024Z,998.75
2023-04-15T19:36:19.663Z,997.40
2023-04-15T19:38:46.203Z,994.78
2023-04-15T19:41:13.099Z,997.22
2023-04-15T19:43:39.628Z,993.55
2023-04-15T19:46:07.000Z,992.80
2023-04-15T19:48:33.599Z,994.60
2023-04-15T19:51:00.589Z,990.80
2023-04-15T19:53:27.210Z,995.83
2023-04-15T19:55:53.718Z,997.42
2023-04-15T19:58:20.287Z,997.08
2023-04-15T20:00:46.945Z,990.58
2023-04-15T20:03:13.790Z,994.92
2023-04-15T20:05:40.433Z,990.03
2023-04-15T20:08:06.949Z,995.40
2023-04-15T20:10:33.606Z,991.58
2023-04-15T20:13:00.205Z,986.50
2023-04-15T20:15:27.322Z,989.88
2023-04-15T20:17:54.201Z,983.13
2023-04-15T20:20:21.566Z,984.40
2023-04-15T20:22:48.492Z,986.28
2023-04-15T20:25:15.201Z,985.20
2023-04-15T20:27:41.750Z,983.72
2023-04-15T20:30:08.757Z,984.15
2023-04-15T20:32:36.117Z,975.40
2023-04-15T20:35:04.497Z,982.58
2023-04-15T20:37:33.426Z,981.97
2023-04-15T20:40:01.315Z,980.13
2023-04-15T20:42:28.213Z,983.72
2023-04-15T20:44:54.774Z,982.45
2023-04-15T20:47:21.517Z,984.20
2023-04-15T20:49:48.200Z,982.35
2023-04-15T20:52:14.797Z,984.28
2023-04-15T20:54:41.507Z,989.35
2023-04-15T20:57:08.034Z,986.78
2023-04-15T20:59:34.937Z,986.00
2023-04-15T21:02:01.956Z,983.17
2023-04-15T21:04:28.571Z,983.45
2023-04-15T21:06:55.233Z,992.17
2023-04-15T21:09:21.758Z,979.28
2023-04-15T21:14:18.889Z,998.40
2023-04-15T21:16:45.619Z,989.90
2023-04-15T21:19:12.290Z,997.25
2023-04-15T21:21:38.849Z,991.75
2023-04-15T21:24:07.727Z,987.33
2023-04-15T21:26:35.938Z,994.53
2023-04-15T21:29:03.053Z,990.25
2023-04-15T21:31:29.995Z,991.08
2023-04-15T21:33:56.618Z,990.20
2023-04-15T21:36:23.229Z,985.55
2023-04-15T21:38:49.786Z,989.35
2023-04-15T21:41:16.384Z,981.90
2023-04-15T21:43:42.941Z,987.95
2023-04-15T21:46:24.058Z,980.40
2023-04-15T21:48:52.504Z,982.85
2023-04-15T21:51:19.114Z,984.42
2023-04-15T21:53:45.677Z,969.17
2023-04-15T21:56:12.218Z,968.80
2023-04-15T21:58:38.819Z,968.78
2023-04-15T22:01:05.700Z,954.00
2023-04-15T22:03:34.696Z,970.60
2023-04-15T22:06:04.843Z,977.75
2023-04-15T22:08:38.550Z,970.38
2023-04-15T22:11:31.155Z,950.25
2023-04-15T22:13:58.650Z,955.67
2023-04-15T22:16:28.585Z,974.83
2023-04-15T22:18:56.071Z,960.55
2023-04-15T22:21:23.206Z,945.65
2023-04-15T22:23:49.891Z,962.08
2023-04-15T22:26:16.707Z,921.00
2023-04-15T22:28:43.285Z,952.13
2023-04-15T22:31:10.459Z,929.78
2023-04-15T22:33:37.143Z,944.63
2023-04-15T22:36:03.830Z,934.35
2023-04-15T22:38:30.489Z,961.13
2023-04-15T22:40:57.049Z,928.30
2023-04-15T22:43:23.809Z,944.90
2023-04-15T22:45:51.084Z,920.67
2023-04-15T22:48:20.780Z,851.15
2023-04-15T22:50:47.499Z,962.13
2023-04-15T22:53:15.661Z,944.88
2023-04-15T22:55:47.118Z,944.67
2023-04-15T22:58:14.300Z,959.58
2023-04-15T23:00:40.903Z,950.83
2023-04-15T23:03:07.763Z,940.58
2023-04-15T23:05:34.544Z,956.38
2023-04-15T23:08:01.201Z,967.00
2023-04-15T23:10:28.156Z,979.90
2023-04-15T23:12:54.738Z,971.80
2023-04-15T23:15:21.340Z,972.15
2023-04-15T23:17:47.893Z,975.15
2023-04-15T23:20:16.272Z,949.40
2023-04-15T23:22:43.312Z,961.70
2023-04-15T23:25:10.197Z,977.67
2023-04-15T23:27:36.924Z,960.88
2023-04-15T23:30:03.965Z,936.30
2023-04-15T23:32:30.750Z,951.65
2023-04-15T23:34:57.417Z,964.40
2023-04-15T23:37:23.992Z,953.80
2023-04-15T23:39:50.531Z,946.03
2023-04-15T23:42:17.276Z,852.00
2023-04-15T23:44:43.823Z,878.03
2023-04-15T23:47:10.670Z,807.42
2023-04-15T23:49:37.203Z,829.88
2023-04-15T23:52:04.154Z,817.75
2023-04-15T23:54:30.822Z,843.03
2023-04-15T23:56:57.394Z,844.70
2023-04-15T23:59:24.064Z,797.10
